PST,Max TemperatureF,Mean TemperatureF,Min TemperatureF,Max Dew PointF,MeanDew PointF,Min DewpointF,Max Humidity, Mean Humidity, Min Humidity, Max Sea Level PressureIn, Mean Sea Level PressureIn, Min Sea Level PressureIn, Max VisibilityMiles, Mean VisibilityMiles, Min VisibilityMiles, Max Wind SpeedMPH, Mean Wind SpeedMPH, Max Gust SpeedMPH,PrecipitationIn, CloudCover, Events, WindDirDegrees
2012-2-1,50,42,35,43,38,32,100,78,58,30.44,30.20,29.88,10,10,7,9,4,21,0.03,6,,275
2012-2-2,53,43,33,37,35,30,100,80,51,30.47,30.35,30.22,10,10,5,8,1,,0.00,1,,341
2012-2-3,57,42,26,34,28,25,100,63,29,30.22,30.12,30.07,10,10,9,17,3,32,0.00,0,,148
2012-2-4,60,43,26,34,28,23,93,66,27,30.18,30.15,30.11,10,10,10,16,2,22,0.00,0,,147
2012-2-5,57,42,26,37,30,23,93,73,41,30.25,30.19,30.11,10,10,8,5,0,,0.00,0,,165
2012-2-6,62,44,26,34,27,23,100,67,22,30.09,29.98,29.86,10,9,0,17,2,24,0.00,1,,135
2012-2-7,57,42,26,32,27,23,93,63,33,29.99,29.88,29.84,10,10,10,14,2,21,0.00,4,,147
2012-2-8,46,42,39,43,39,34,93,84,62,30.27,30.17,30.02,10,9,5,14,7,17,0.06,7,,145
2012-2-9,51,46,42,46,43,39,93,86,81,30.28,30.21,30.10,10,8,3,10,6,,0.19,5,,152
2012-2-10,50,46,42,46,42,37,93,86,71,30.07,29.99,29.96,10,10,2,14,7,23,0.03,8,,145
2012-2-11,50,46,42,43,40,37,93,82,66,30.21,30.16,30.10,10,8,1,13,4,20,0.00,8,,153
2012-2-12,46,42,37,39,37,36,100,83,66,30.15,30.02,29.90,10,9,4,10,2,,0.01,8,,165
2012-2-13,46,42,39,39,38,36,93,86,71,30.10,30.02,29.94,10,10,10,6,1,,0.09,8,,234
2012-2-14,44,42,39,37,36,34,87,81,66,30.08,30.00,29.96,10,10,5,12,5,18,0.08,7,,192
2012-2-15,48,40,33,36,34,30,100,79,57,30.40,30.34,30.23,10,10,9,8,2,,0.00,5,,159
2012-2-16,44,40,37,39,37,34,93,86,81,30.33,30.28,30.25,10,9,3,14,7,20,0.13,7,,153
2012-2-17,50,46,42,46,42,39,93,88,76,30.26,30.11,29.93,10,9,2,14,5,21,0.25,8,,156
2012-2-18,42,40,37,39,37,34,93,85,81,30.18,30.12,30.06,10,10,8,14,9,21,0.57,8,,166
2012-2-19,44,40,37,36,35,32,93,79,61,30.19,30.08,29.95,10,10,10,10,4,,0.00,7,,152
2012-2-20,46,42,39,45,40,34,93,89,81,30.08,29.97,29.87,10,9,4,15,7,22,0.09,8,,156
2012-2-21,51,50,48,48,47,45,94,92,87,30.23,30.17,30.11,10,6,2,10,7,,0.47,8,,161
2012-2-22,51,48,42,46,41,36,93,80,58,30.36,30.24,30.12,10,9,3,17,8,25,0.91,7,,244
2012-2-23,46,40,35,39,36,34,93,84,71,30.46,30.42,30.35,10,9,4,9,3,,0.01,6,,148
2012-2-24,48,44,39,43,37,34,93,79,62,30.31,29.99,29.69,10,10,7,16,9,24,0.15,8,,151
2012-2-25,42,40,35,37,34,30,93,82,70,30.33,30.16,29.75,10,9,2,17,9,28,0.42,7,,252
2012-2-26,44,38,33,36,33,28,93,87,61,30.30,30.19,30.11,10,9,2,12,4,16,0.26,7,,116
2012-2-27,44,36,28,30,29,27,93,76,53,30.19,30.13,30.05,10,10,10,8,3,,0.00,1,,348
2012-2-28,42,36,30,36,30,27,93,78,57,29.98,29.79,29.49,10,10,9,22,7,34,0.17,6,,145
2012-2-29,39,37,35,36,34,30,93,87,75,29.81,29.68,29.59,10,10,7,17,12,28,0.64,8,,153